D/T METAR WX W/DIR W/SPE G/SPE TEMP DEWP
3/06/20 18:20 EGVN 031720Z 02010KT 9999 FEW014 SCT028 BKN050 13/11 Q1008 TEMPO SCT018 NNE (20°) 11.5mph 13°C 11°C
3/06/20 17:50 EGVN 031650Z 03013KT 9999 -RA FEW012 SCT028 BKN048 13/12 Q1008 TEMPO SCT018 -RA NNE (30°) 15.0mph 13°C 12°C
3/06/20 17:20 EGVN 031620Z 03012KT 9999 -RA FEW012 SCT020 OVC048 14/12 Q1008 NOSIG RMK WHT WHT -RA NNE (30°) 13.8mph 14°C 12°C
3/06/20 16:50 EGVN 031550Z 03010KT 9999 FEW014 SCT020 BKN045 14/12 Q1008 NOSIG RMK WHT WHT NNE (30°) 11.5mph 14°C 12°C
3/06/20 16:20 EGVN 031520Z 03008KT 9999 -RA FEW012 SCT020 BKN048 14/12 Q1008 TEMPO FEW020 -RA NNE (30°) 9.2mph 14°C 12°C
3/06/20 15:50 EGVN 031450Z 04011KT 9999 -RA FEW020 SCT035 BKN048 14/12 Q1008 TEMPO SCT020 RMK BLU TEMPO WHT -RA NE (40°) 12.7mph 14°C 12°C
3/06/20 15:20 EGVN 031420Z 04010KT 9999 -RA FEW028 SCT032 OVC048 15/11 Q1008 TEMPO SCT024 -RA NE (40°) 11.5mph 15°C 11°C
3/06/20 14:50 EGVN 031350Z 04014KT 9999 -RA SCT028 SCT048 OVC055 15/11 Q1008 TEMPO SCT024 RMK BLU TEMPO WHT -RA NE (40°) 16.1mph 15°C 11°C
3/06/20 14:20 EGVN 031320Z 04012KT 9999 -RA FEW028 SCT050 OVC060 16/10 Q1008 TEMPO SCT024 RMK BLU TEMPO WHT -RA NE (40°) 13.8mph 16°C 10°C
3/06/20 13:50 EGVN 031250Z 04012KT 9999 -RA FEW025 SCT050 OVC065 16/09 Q1008 NOSIG RMK BLU BLU -RA NE (40°) 13.8mph 16°C 9°C
3/06/20 13:21 EGVN 031221Z 05013KT 9999 FEW024 SCT045 OVC065 17/09 Q1008 NOSIG RMK BLU BLU NE (50°) 15.0mph 17°C 9°C
3/06/20 12:50 EGVN 031150Z 04011KT 9999 -RA FEW022 SCT045 OVC065 16/10 Q1009 NOSIG RMK BLU BLU -RA NE (40°) 12.7mph 16°C 10°C
3/06/20 12:20 EGVN 031120Z 04010KT 9999 -RA FEW040 SCT050 OVC070 16/09 Q1009 NOSIG RMK BLU BLU -RA NE (40°) 11.5mph 16°C 9°C
3/06/20 11:50 EGVN 031050Z 04010KT 9999 -RA SCT050 OVC070 16/09 Q1009 NOSIG RMK BLU BLU -RA NE (40°) 11.5mph 16°C 9°C
3/06/20 10:50 EGVN 030950Z 03011KT CAVOK 16/08 Q1009 NOSIG RMK BLU BLU NNE (30°) 12.7mph 16°C 8°C
3/06/20 09:50 EGVN 030850Z 06008KT CAVOK 16/09 Q1009 NOSIG RMK BLU BLU ENE (60°) 9.2mph 16°C 9°C
3/06/20 09:20 EGVN 030820Z 03007KT 9999 -RA SCT050 OVC070 15/10 Q1009 NOSIG RMK BLU BLU -RA NNE (30°) 8.1mph 15°C 10°C
3/06/20 08:50 EGVN 030750Z 03007KT 9999 -RA FEW050 OVC070 15/09 Q1009 NOSIG RMK BLU BLU -RA NNE (30°) 8.1mph 15°C 9°C
3/06/20 08:20 EGVN 030720Z 36006KT 9999 -RA FEW045 OVC080 15/10 Q1009 NOSIG RMK BLU BLU -RA N (360°) 6.9mph 15°C 10°C
3/06/20 07:50 EGVN 030650Z 33005KT CAVOK 15/10 Q1009 NOSIG RMK BLU BLU NNW (330°) 5.8mph 15°C 10°C
3/06/20 06:50 EGVN 030550Z 32006KT 9999 FEW045 OVC080 17/08 Q1009 NOSIG RMK BLU BLU NW (320°) 6.9mph 17°C 8°C
3/06/20 06:20 EGVN 030520Z 29003KT CAVOK 16/08 Q1009 NOSIG RMK BLU BLU WNW (290°) 3.5mph 16°C 8°C
3/06/20 05:20 EGVN 030420Z 12001KT CAVOK 16/07 Q1009 NOSIG RMK BLU BLU ESE (120°) 1.2mph 16°C 7°C
3/06/20 04:50 EGVN 030350Z 33005KT CAVOK 17/08 Q1010 NOSIG RMK BLU BLU NNW (330°) 5.8mph 17°C 8°C
3/06/20 04:20 EGVN 030320Z 32008KT CAVOK 17/08 Q1010 NOSIG RMK BLU BLU NW (320°) 9.2mph 17°C 8°C
3/06/20 03:50 EGVN 030250Z 21003KT CAVOK 17/08 Q1010 NOSIG RMK BLU BLU SSW (210°) 3.5mph 17°C 8°C
3/06/20 03:50 EGVN 030250Z 21003KT CAVOK 17/08 Q1010 NOSIG SSW (210°) 3.5mph 17°C 8°C
3/06/20 02:50 EGVN 030150Z 22001KT CAVOK 17/08 Q1011 NOSIG RMK BLU BLU SW (220°) 1.2mph 17°C 8°C
3/06/20 02:21 EGVN 030121Z 31004KT CAVOK 17/08 Q1011 NOSIG RMK BLU BLU NW (310°) 4.6mph 17°C 8°C
3/06/20 01:50 EGVN 030050Z 31005KT CAVOK 17/08 Q1012 NOSIG RMK BLU BLU NW (310°) 5.8mph 17°C 8°C
3/06/20 01:20 EGVN 030020Z 33006KT CAVOK 17/08 Q1012 NOSIG RMK BLU BLU NNW (330°) 6.9mph 17°C 8°C
3/06/20 00:50 EGVN 022350Z 33006KT CAVOK 18/07 Q1012 NOSIG RMK BLU BLU NNW (330°) 6.9mph 18°C 7°C
3/06/20 00:20 EGVN 022320Z 32006KT CAVOK 18/07 Q1013 NOSIG RMK BLU BLU NW (320°) 6.9mph 18°C 7°C
2/06/20 23:50 EGVN 022250Z 33006KT CAVOK 18/07 Q1013 NOSIG RMK BLU BLU NNW (330°) 6.9mph 18°C 7°C
2/06/20 23:20 EGVN 022220Z 29003KT CAVOK 17/06 Q1013 NOSIG RMK BLU BLU WNW (290°) 3.5mph 17°C 6°C
2/06/20 22:50 EGVN 022150Z 29002KT CAVOK 17/06 Q1014 NOSIG WNW (290°) 2.3mph 17°C 6°C
2/06/20 22:20 EGVN 022120Z 03001KT CAVOK 17/06 Q1014 NOSIG NNE (30°) 1.2mph 17°C 6°C
2/06/20 21:20 EGVN 022020Z 15002KT CAVOK 21/04 Q1014 NOSIG RMK BLU BLU SSE (150°) 2.3mph 21°C 4°C
2/06/20 20:50 EGVN 021950Z 14002KT CAVOK 21/04 Q1014 NOSIG RMK BLU BLU SE (140°) 2.3mph 21°C 4°C
2/06/20 20:50 EGVN 021950Z 14002KT CAVOK 21/04 Q1014 NOSIG SE (140°) 2.3mph 21°C 4°C
2/06/20 19:50 EGVN 021850Z 32002KT CAVOK 23/05 Q1015 NOSIG RMK BLU BLU NW (320°) 2.3mph 23°C 5°C
2/06/20 18:50 EGVN 021750Z 36007KT CAVOK 24/04 Q1015 NOSIG RMK BLU BLU N (360°) 8.1mph 24°C 4°C
2/06/20 18:20 EGVN 021720Z 35007KT CAVOK 24/04 Q1015 NOSIG RMK BLU BLU N (350°) 8.1mph 24°C 4°C
2/06/20 17:50 EGVN 021650Z 35008KT CAVOK 24/05 Q1016 NOSIG RMK BLU BLU N (350°) 9.2mph 24°C 5°C
2/06/20 17:21 EGVN 021621Z 02006KT CAVOK 24/06 Q1016 NOSIG RMK BLU BLU NNE (20°) 6.9mph 24°C 6°C
2/06/20 16:50 EGVN 021550Z 34005KT CAVOK 24/07 Q1016 NOSIG RMK BLU BLU NNW (340°) 5.8mph 24°C 7°C
2/06/20 16:20 EGVN 021520Z 34005KT CAVOK 24/06 Q1017 NOSIG RMK BLU BLU NNW (340°) 5.8mph 24°C 6°C
2/06/20 15:50 EGVN 021450Z 35006KT CAVOK 23/05 Q1017 NOSIG RMK BLU BLU N (350°) 6.9mph 23°C 5°C
2/06/20 15:20 EGVN 021420Z 36006KT CAVOK 24/04 Q1018 NOSIG RMK BLU BLU N (360°) 6.9mph 24°C 4°C
2/06/20 14:50 EGVN 021350Z 36006KT CAVOK 23/04 Q1018 NOSIG RMK BLU BLU N (360°) 6.9mph 23°C 4°C
2/06/20 14:21 EGVN 021321Z 35007KT CAVOK 22/02 Q1018 NOSIG RMK BLU BLU N (350°) 8.1mph 22°C 2°C
2/06/20 13:50 EGVN 021250Z 36006KT CAVOK 22/05 Q1019 NOSIG RMK BLU BLU N (360°) 6.9mph 22°C 5°C
2/06/20 13:22 EGVN 021222Z 03007KT CAVOK 22/04 Q1019 NOSIG RMK BLU BLU NNE (30°) 8.1mph 22°C 4°C
2/06/20 12:50 EGVN 021150Z 01007KT CAVOK 22/04 Q1019 NOSIG RMK BLU BLU N (10°) 8.1mph 22°C 4°C
2/06/20 12:21 EGVN 021121Z 01008KT CAVOK 22/06 Q1020 NOSIG RMK BLU BLU N (10°) 9.2mph 22°C 6°C
2/06/20 11:50 EGVN 021050Z 34007KT CAVOK 20/04 Q1020 NOSIG RMK BLU BLU NNW (340°) 8.1mph 20°C 4°C
2/06/20 11:20 EGVN 021020Z 36008KT CAVOK 20/05 Q1020 NOSIG RMK BLU BLU N (360°) 9.2mph 20°C 5°C
2/06/20 10:50 EGVN 020950Z 01009KT CAVOK 20/04 Q1020 NOSIG RMK BLU BLU N (10°) 10.4mph 20°C 4°C
2/06/20 10:20 EGVN 020920Z 34007KT CAVOK 20/03 Q1021 NOSIG RMK BLU BLU NNW (340°) 8.1mph 20°C 3°C
2/06/20 09:50 EGVN 020850Z 35005KT CAVOK 19/07 Q1021 NOSIG RMK BLU BLU N (350°) 5.8mph 19°C 7°C
2/06/20 09:20 EGVN 020820Z 03006KT CAVOK 18/09 Q1021 NOSIG RMK BLU BLU NNE (30°) 6.9mph 18°C 9°C
2/06/20 08:50 EGVN 020750Z 01005KT CAVOK 17/09 Q1021 NOSIG RML BLU BLU N (10°) 5.8mph 17°C 9°C
2/06/20 08:20 EGVN 020720Z 03003KT CAVOK 15/10 Q1021 NOSIG RMK BLU BLU NNE (30°) 3.5mph 15°C 10°C
2/06/20 07:50 EGVN 020650Z 02005KT CAVOK 14/10 Q1022 NOSIG RMK BLU BLU NNE (20°) 5.8mph 14°C 10°C
2/06/20 06:50 EGVN 020550Z 02004KT CAVOK 12/09 Q1022 NOSIG RMK BLU BLU NNE (20°) 4.6mph 12°C 9°C
2/06/20 06:20 EGVN 020520Z 02003KT CAVOK 11/09 Q1022 NOSIG RMK BLU BLU NNE (20°) 3.5mph 11°C 9°C
2/06/20 05:20 EGVN 020420Z 36003KT CAVOK 10/07 Q1022 NOSIG RMK BLU BLU N (360°) 3.5mph 10°C 7°C
2/06/20 04:50 EGVN 020350Z 03003KT CAVOK 10/06 Q1022 NOSIG RMK BLU BLU NNE (30°) 3.5mph 10°C 6°C
2/06/20 04:20 EGVN 020320Z 02005KT CAVOK 10/06 Q1022 NOSIG RMK BLU BLU NNE (20°) 5.8mph 10°C 6°C
2/06/20 03:50 EGVN 020250Z 02004KT CAVOK 11/06 Q1022 NOSIG RMK BLU BLU NNE (20°) 4.6mph 11°C 6°C
2/06/20 03:20 EGVN 020220Z 01004KT CAVOK 11/06 Q1022 NOSIG RMK BLU BLU N (10°) 4.6mph 11°C 6°C
2/06/20 02:50 EGVN 020150Z 04006KT CAVOK 12/07 Q1022 NOSIG RMK BLU BLU NE (40°) 6.9mph 12°C 7°C
2/06/20 02:30 EGVN 020130Z 03005KT CAVOK 13/07 Q1022 NOSIG RMK BLU BLU NNE (30°) 5.8mph 13°C 7°C
2/06/20 01:50 EGVN 020050Z 05006KT CAVOK 13/07 Q1022 NOSIG RMK BLU BLU NE (50°) 6.9mph 13°C 7°C
2/06/20 01:20 EGVN 020020Z 05008KT CAVOK 14/07 Q1022 NOSIG RMK BLU BLU NE (50°) 9.2mph 14°C 7°C
2/06/20 00:50 EGVN 012350Z 05008KT CAVOK 15/07 Q1023 NOSIG RMK BLU BLU NE (50°) 9.2mph 15°C 7°C
2/06/20 00:20 EGVN 012320Z 05008KT CAVOK 15/08 Q1023 NOSIG RMK BLU BLU NE (50°) 9.2mph 15°C 8°C
1/06/20 23:50 EGVN 012250Z 04009KT CAVOK 16/08 Q1022 NOSIG RMK BLU BLU NE (40°) 10.4mph 16°C 8°C
1/06/20 23:20 EGVN 012220Z 04010KT CAVOK 17/08 Q1022 NOSIG RMK BLU BLU NE (40°) 11.5mph 17°C 8°C
1/06/20 22:50 EGVN 012150Z 04010KT CAVOK 18/09 Q1022 NOSIG RMK BLU BLU NE (40°) 11.5mph 18°C 9°C
1/06/20 22:20 EGVN 012120Z 05010KT CAVOK 18/09 Q1022 NOSIG RMK BLU BLU NE (50°) 11.5mph 18°C 9°C
1/06/20 21:50 EGVN 012050Z 04009KT CAVOK 19/10 Q1022 NOSIG RMK BLU BLU NE (40°) 10.4mph 19°C 10°C
1/06/20 21:20 EGVN 012020Z 04008KT CAVOK 20/10 Q1021 NOSIG RMK BLU BLU NE (40°) 9.2mph 20°C 10°C
1/06/20 20:50 EGVN 011950Z 04008KT CAVOK 21/10 Q1021 NOSIG RMK BLU BLU NE (40°) 9.2mph 21°C 10°C
1/06/20 20:22 EGVN 011922Z 04011KT CAVOK 22/09 Q1021 NOSIG RMK BLU BLU NE (40°) 12.7mph 22°C 9°C
1/06/20 19:50 EGVN 011850Z 06007KT CAVOK 23/08 Q1021 NOSIG RMK BLU BLU ENE (60°) 8.1mph 23°C 8°C
1/06/20 18:50 EGVN 011750Z 04006KT CAVOK 23/08 Q1021 NOSIG RMK BLU BLU NE (40°) 6.9mph 23°C 8°C
1/06/20 18:20 EGVN 011720Z 08007KT CAVOK 23/07 Q1021 NOSIG RMK BLU BLU E (80°) 8.1mph 23°C 7°C
1/06/20 17:50 EGVN 011650Z 05008KT CAVOK 24/07 Q1021 NOSIG RMK BLU BLU NE (50°) 9.2mph 24°C 7°C
1/06/20 17:20 EGVN 011620Z 06007KT CAVOK 24/08 Q1021 NOSIG RMK BLU BLU ENE (60°) 8.1mph 24°C 8°C
1/06/20 16:50 EGVN 011550Z 08007KT CAVOK 24/08 Q1021 NOSIG RMK BLU BLU E (80°) 8.1mph 24°C 8°C
1/06/20 16:20 EGVN 011520Z 03008KT CAVOK 24/08 Q1022 NOSIG RMK BLU BLU NNE (30°) 9.2mph 24°C 8°C
1/06/20 15:50 EGVN 011450Z 07009KT CAVOK 24/07 Q1022 NOSIG RMK BLU BLU ENE (70°) 10.4mph 24°C 7°C
1/06/20 13:50 EGVN 011250Z 06011KT CAVOK 23/08 Q1022 NOSIG RMK BLU BLU ENE (60°) 12.7mph 23°C 8°C
1/06/20 13:20 EGVN 011220Z 09010KT CAVOK 22/08 Q1023 NOSIG RMK BLU BLU E (90°) 11.5mph 22°C 8°C
1/06/20 12:50 EGVN 011150Z 08011KT CAVOK 22/08 Q1023 NOSIG RMK BLU BLU E (80°) 12.7mph 22°C 8°C